Key Field
KMEI : rendu visible

Aérodrome :











RETROUVEZ-NOUS SUR...

 
LOGIN :

S'inscrire | Disclaimer

   EN    FR    IT 

 









Légende :    VFR   VFR Marginal   IFR   IFR Intensif   IFR Très Intensif
Visi : 
Plafond : 
>= 8 km
>= 3000ft
5 à 8 km
1000 à 3000 ft
1500m à 5 km
500 à 1000 ft
800 à 1500m
200 à 500 ft
< 800m
< 200 ft
Symboles :   Orages  Brouillard  Fortes neiges  Fortes précipitations  Vent > 20 kt






- Altitude de l'aérodrome : 297 ft
- Code IATA : MEI


KMEI - Key Field

DERNIER METAR :
  • 200158Z 33009KT 10SM CLR 06/M07 A3038 RMK AO2 SLP288 T00611067

METARs EXPIRÉS :
  • 200058Z 33007KT 10SM CLR 06/M06 A3037 RMK AO2 SLP285 T00611061
  • 192358Z 32006KT 10SM CLR 07/M06 A3035 RMK AO2 SLP277 T00721061 10117 20072 53009

TAF KMEI
Valide du 20 à 00h jusqu'au 21 à 00h UTC


192331Z 2000/2024 34012KT P6SM SKC
FM201700 36011G17KT P6SM SKC



MET'MAP, la Météo Aéronautique d'un coup d'oeil ! - Copyright ORBIFLY Décembre 2007 - Disclaimer

ORBIFLY MET'MAP TEAM :

Programmation & Développement : Alexandra Zaïnal
Sur une idée originale de : Baudouin d'Aumeries
Assistance à la programmation : Marc-Olivier Méhu
Soutien technique & logistique : Manuel Goepfert

Contact : metmap@orbifly.com




SOURCES & CREDITS :

   NOAA       Earth
Advisory